sensor_id;sensor_type;location;lat;lon;timestamp;temperature;humidity
20845;DHT22;10583;49.084;8.646;2023-12-22T00:01:55;8.70;99.90
20845;DHT22;10583;49.084;8.646;2023-12-22T00:04:21;8.70;99.90
20845;DHT22;10583;49.084;8.646;2023-12-22T00:06:48;8.70;99.90
20845;DHT22;10583;49.084;8.646;2023-12-22T00:09:17;8.60;99.90
20845;DHT22;10583;49.084;8.646;2023-12-22T00:11:44;8.50;99.90
20845;DHT22;10583;49.084;8.646;2023-12-22T00:14:12;8.40;99.90
20845;DHT22;10583;49.084;8.646;2023-12-22T00:16:39;8.40;99.90
20845;DHT22;10583;49.084;8.646;2023-12-22T00:19:06;8.30;99.90
20845;DHT22;10583;49.084;8.646;2023-12-22T00:21:32;8.30;99.90
20845;DHT22;10583;49.084;8.646;2023-12-22T00:23:59;8.20;99.90
20845;DHT22;10583;49.084;8.646;2023-12-22T00:26:26;7.80;99.90
20845;DHT22;10583;49.084;8.646;2023-12-22T00:28:53;7.50;99.90
20845;DHT22;10583;49.084;8.646;2023-12-22T00:31:21;7.30;99.90
20845;DHT22;10583;49.084;8.646;2023-12-22T00:33:47;7.10;99.90
20845;DHT22;10583;49.084;8.646;2023-12-22T00:36:14;6.90;99.90
20845;DHT22;10583;49.084;8.646;2023-12-22T00:38:43;6.90;99.90
20845;DHT22;10583;49.084;8.646;2023-12-22T00:41:10;6.90;99.90
20845;DHT22;10583;49.084;8.646;2023-12-22T00:43:37;6.80;99.90
20845;DHT22;10583;49.084;8.646;2023-12-22T00:46:03;6.80;99.90
20845;DHT22;10583;49.084;8.646;2023-12-22T00:48:31;6.90;99.90
20845;DHT22;10583;49.084;8.646;2023-12-22T00:50:58;6.90;99.90
20845;DHT22;10583;49.084;8.646;2023-12-22T00:53:25;6.90;99.90
20845;DHT22;10583;49.084;8.646;2023-12-22T00:55:52;7.00;99.90
20845;DHT22;10583;49.084;8.646;2023-12-22T00:58:18;7.30;99.90
20845;DHT22;10583;49.084;8.646;2023-12-22T01:00:45;7.50;99.90
20845;DHT22;10583;49.084;8.646;2023-12-22T01:03:12;7.90;99.90
20845;DHT22;10583;49.084;8.646;2023-12-22T01:05:40;8.00;99.90
20845;DHT22;10583;49.084;8.646;2023-12-22T01:08:07;8.10;99.90
20845;DHT22;10583;49.084;8.646;2023-12-22T01:10:34;8.10;99.90
20845;DHT22;10583;49.084;8.646;2023-12-22T01:13:00;8.10;99.90
20845;DHT22;10583;49.084;8.646;2023-12-22T01:15:27;8.10;99.90
20845;DHT22;10583;49.084;8.646;2023-12-22T01:17:54;8.20;99.90
20845;DHT22;10583;49.084;8.646;2023-12-22T01:20:21;8.20;99.90
20845;DHT22;10583;49.084;8.646;2023-12-22T01:22:49;8.10;99.90
20845;DHT22;10583;49.084;8.646;2023-12-22T01:25:16;8.20;99.90
20845;DHT22;10583;49.084;8.646;2023-12-22T01:27:43;8.20;99.90
20845;DHT22;10583;49.084;8.646;2023-12-22T01:30:10;8.20;99.90
20845;DHT22;10583;49.084;8.646;2023-12-22T01:32:37;8.20;99.90
20845;DHT22;10583;49.084;8.646;2023-12-22T01:35:04;8.20;99.90
20845;DHT22;10583;49.084;8.646;2023-12-22T01:37:35;8.30;99.90
20845;DHT22;10583;49.084;8.646;2023-12-22T01:40:04;8.30;99.90
20845;DHT22;10583;49.084;8.646;2023-12-22T01:42:31;8.30;99.90
20845;DHT22;10583;49.084;8.646;2023-12-22T01:44:57;8.30;99.90
20845;DHT22;10583;49.084;8.646;2023-12-22T01:47:24;8.30;99.90
20845;DHT22;10583;49.084;8.646;2023-12-22T01:49:52;8.40;99.90
20845;DHT22;10583;49.084;8.646;2023-12-22T01:52:19;8.40;99.90
20845;DHT22;10583;49.084;8.646;2023-12-22T01:54:45;8.40;99.90
20845;DHT22;10583;49.084;8.646;2023-12-22T01:57:15;8.40;99.90
20845;DHT22;10583;49.084;8.646;2023-12-22T01:59:44;8.40;99.90
20845;DHT22;10583;49.084;8.646;2023-12-22T02:02:11;8.40;99.90
20845;DHT22;10583;49.084;8.646;2023-12-22T02:04:39;8.30;99.90
20845;DHT22;10583;49.084;8.646;2023-12-22T02:07:07;8.30;99.90
20845;DHT22;10583;49.084;8.646;2023-12-22T02:09:36;8.20;99.90
20845;DHT22;10583;49.084;8.646;2023-12-22T02:12:03;8.10;99.90
20845;DHT22;10583;49.084;8.646;2023-12-22T02:14:31;8.10;99.90
20845;DHT22;10583;49.084;8.646;2023-12-22T02:17:06;8.10;99.90
20845;DHT22;10583;49.084;8.646;2023-12-22T02:19:41;8.10;99.90
20845;DHT22;10583;49.084;8.646;2023-12-22T02:22:09;8.10;99.90
20845;DHT22;10583;49.084;8.646;2023-12-22T02:24:38;8.10;99.90
20845;DHT22;10583;49.084;8.646;2023-12-22T02:27:07;8.10;99.90
20845;DHT22;10583;49.084;8.646;2023-12-22T02:29:42;8.20;99.90
20845;DHT22;10583;49.084;8.646;2023-12-22T02:32:21;8.20;99.90
20845;DHT22;10583;49.084;8.646;2023-12-22T02:34:51;8.20;99.90
20845;DHT22;10583;49.084;8.646;2023-12-22T02:37:20;8.20;99.90
20845;DHT22;10583;49.084;8.646;2023-12-22T02:39:49;8.20;99.90
20845;DHT22;10583;49.084;8.646;2023-12-22T02:42:17;8.20;99.90
20845;DHT22;10583;49.084;8.646;2023-12-22T02:44:45;8.20;99.90
20845;DHT22;10583;49.084;8.646;2023-12-22T02:47:12;8.20;99.90
20845;DHT22;10583;49.084;8.646;2023-12-22T02:49:38;8.20;99.90
20845;DHT22;10583;49.084;8.646;2023-12-22T02:52:05;8.20;99.90
20845;DHT22;10583;49.084;8.646;2023-12-22T02:54:32;8.20;99.90
20845;DHT22;10583;49.084;8.646;2023-12-22T02:57:00;8.20;99.90
20845;DHT22;10583;49.084;8.646;2023-12-22T02:59:27;8.20;99.90
20845;DHT22;10583;49.084;8.646;2023-12-22T03:01:54;8.20;99.90
20845;DHT22;10583;49.084;8.646;2023-12-22T03:04:21;8.20;99.90
20845;DHT22;10583;49.084;8.646;2023-12-22T03:06:47;8.20;99.90
20845;DHT22;10583;49.084;8.646;2023-12-22T03:09:14;8.30;99.90
20845;DHT22;10583;49.084;8.646;2023-12-22T03:11:41;8.30;99.90
20845;DHT22;10583;49.084;8.646;2023-12-22T03:14:09;8.30;99.90
20845;DHT22;10583;49.084;8.646;2023-12-22T03:16:36;8.30;99.90
20845;DHT22;10583;49.084;8.646;2023-12-22T03:19:03;8.30;99.90
20845;DHT22;10583;49.084;8.646;2023-12-22T03:21:29;8.40;99.90
20845;DHT22;10583;49.084;8.646;2023-12-22T03:23:56;8.30;99.90
20845;DHT22;10583;49.084;8.646;2023-12-22T03:26:23;8.30;99.90
20845;DHT22;10583;49.084;8.646;2023-12-22T03:28:50;8.40;99.90
20845;DHT22;10583;49.084;8.646;2023-12-22T03:31:18;8.40;99.90
20845;DHT22;10583;49.084;8.646;2023-12-22T03:33:44;8.40;99.90
20845;DHT22;10583;49.084;8.646;2023-12-22T03:36:11;8.40;99.90
20845;DHT22;10583;49.084;8.646;2023-12-22T03:38:38;8.30;99.90
20845;DHT22;10583;49.084;8.646;2023-12-22T03:41:05;8.40;99.90
20845;DHT22;10583;49.084;8.646;2023-12-22T03:43:31;8.30;99.90
20845;DHT22;10583;49.084;8.646;2023-12-22T03:45:59;8.20;99.90
20845;DHT22;10583;49.084;8.646;2023-12-22T03:48:27;8.10;99.90
20845;DHT22;10583;49.084;8.646;2023-12-22T03:50:54;7.90;99.90
20845;DHT22;10583;49.084;8.646;2023-12-22T03:53:20;7.80;99.90
20845;DHT22;10583;49.084;8.646;2023-12-22T03:55:47;7.70;99.90
20845;DHT22;10583;49.084;8.646;2023-12-22T03:58:14;7.60;99.90
20845;DHT22;10583;49.084;8.646;2023-12-22T04:00:40;7.60;99.90
20845;DHT22;10583;49.084;8.646;2023-12-22T04:03:07;7.60;99.90
20845;DHT22;10583;49.084;8.646;2023-12-22T04:05:35;7.60;99.90
20845;DHT22;10583;49.084;8.646;2023-12-22T04:08:02;7.60;99.90
20845;DHT22;10583;49.084;8.646;2023-12-22T04:10:29;7.60;99.90
20845;DHT22;10583;49.084;8.646;2023-12-22T04:12:56;7.60;99.90
20845;DHT22;10583;49.084;8.646;2023-12-22T04:15:23;7.60;99.90
20845;DHT22;10583;49.084;8.646;2023-12-22T04:17:49;7.70;99.90
20845;DHT22;10583;49.084;8.646;2023-12-22T04:20:16;7.80;99.90
20845;DHT22;10583;49.084;8.646;2023-12-22T04:22:44;7.90;99.90
20845;DHT22;10583;49.084;8.646;2023-12-22T04:25:11;7.90;99.90
20845;DHT22;10583;49.084;8.646;2023-12-22T04:27:37;7.90;99.90
20845;DHT22;10583;49.084;8.646;2023-12-22T04:30:05;7.90;99.90
20845;DHT22;10583;49.084;8.646;2023-12-22T04:32:32;7.90;99.90
20845;DHT22;10583;49.084;8.646;2023-12-22T04:34:59;8.00;99.90
20845;DHT22;10583;49.084;8.646;2023-12-22T04:37:26;8.00;99.90
20845;DHT22;10583;49.084;8.646;2023-12-22T04:39:54;8.10;99.90
20845;DHT22;10583;49.084;8.646;2023-12-22T04:42:20;8.10;99.90
20845;DHT22;10583;49.084;8.646;2023-12-22T04:44:47;8.00;99.90
20845;DHT22;10583;49.084;8.646;2023-12-22T04:47:15;8.00;99.90
20845;DHT22;10583;49.084;8.646;2023-12-22T04:49:42;8.00;99.90
20845;DHT22;10583;49.084;8.646;2023-12-22T04:52:09;7.90;99.90
20845;DHT22;10583;49.084;8.646;2023-12-22T04:54:35;7.90;99.90
20845;DHT22;10583;49.084;8.646;2023-12-22T04:57:04;7.90;99.90
20845;DHT22;10583;49.084;8.646;2023-12-22T04:59:30;7.90;99.90
20845;DHT22;10583;49.084;8.646;2023-12-22T05:01:57;7.90;99.90
20845;DHT22;10583;49.084;8.646;2023-12-22T05:04:24;7.90;99.90
20845;DHT22;10583;49.084;8.646;2023-12-22T05:06:51;7.90;99.90
20845;DHT22;10583;49.084;8.646;2023-12-22T05:09:17;7.90;99.90
20845;DHT22;10583;49.084;8.646;2023-12-22T05:11:44;7.90;99.90
20845;DHT22;10583;49.084;8.646;2023-12-22T05:14:12;7.90;99.90
20845;DHT22;10583;49.084;8.646;2023-12-22T05:16:39;8.00;99.90
20845;DHT22;10583;49.084;8.646;2023-12-22T05:19:05;7.90;99.90
20845;DHT22;10583;49.084;8.646;2023-12-22T05:21:32;8.00;99.90
20845;DHT22;10583;49.084;8.646;2023-12-22T05:23:59;8.00;99.90
20845;DHT22;10583;49.084;8.646;2023-12-22T05:26:25;8.00;99.90
20845;DHT22;10583;49.084;8.646;2023-12-22T05:28:55;7.90;99.90
20845;DHT22;10583;49.084;8.646;2023-12-22T05:31:23;8.00;99.90
20845;DHT22;10583;49.084;8.646;2023-12-22T05:33:50;8.00;99.90
20845;DHT22;10583;49.084;8.646;2023-12-22T05:36:17;8.00;99.90
20845;DHT22;10583;49.084;8.646;2023-12-22T05:38:43;8.00;99.90
20845;DHT22;10583;49.084;8.646;2023-12-22T05:41:11;8.00;99.90
20845;DHT22;10583;49.084;8.646;2023-12-22T05:43:37;8.00;99.90
20845;DHT22;10583;49.084;8.646;2023-12-22T05:46:04;8.10;99.90
20845;DHT22;10583;49.084;8.646;2023-12-22T05:48:33;8.00;99.90
20845;DHT22;10583;49.084;8.646;2023-12-22T05:51:00;8.10;99.90
20845;DHT22;10583;49.084;8.646;2023-12-22T05:53:28;8.10;99.90
20845;DHT22;10583;49.084;8.646;2023-12-22T05:55:55;8.20;99.90
20845;DHT22;10583;49.084;8.646;2023-12-22T05:58:22;8.20;99.90
20845;DHT22;10583;49.084;8.646;2023-12-22T06:00:48;8.20;99.90
20845;DHT22;10583;49.084;8.646;2023-12-22T06:03:15;8.10;99.90
20845;DHT22;10583;49.084;8.646;2023-12-22T06:05:43;8.20;99.90
20845;DHT22;10583;49.084;8.646;2023-12-22T06:08:10;8.20;99.90
20845;DHT22;10583;49.084;8.646;2023-12-22T06:10:37;8.30;99.90
20845;DHT22;10583;49.084;8.646;2023-12-22T06:13:03;8.30;99.90
20845;DHT22;10583;49.084;8.646;2023-12-22T06:15:31;8.30;99.90
20845;DHT22;10583;49.084;8.646;2023-12-22T06:17:57;8.30;99.90
20845;DHT22;10583;49.084;8.646;2023-12-22T06:20:24;8.40;99.90
20845;DHT22;10583;49.084;8.646;2023-12-22T06:22:53;8.40;99.90
20845;DHT22;10583;49.084;8.646;2023-12-22T06:25:19;8.40;99.90
20845;DHT22;10583;49.084;8.646;2023-12-22T06:27:46;8.40;99.90
20845;DHT22;10583;49.084;8.646;2023-12-22T06:30:13;8.40;99.90
20845;DHT22;10583;49.084;8.646;2023-12-22T06:32:40;8.40;99.90
20845;DHT22;10583;49.084;8.646;2023-12-22T06:35:07;8.40;99.90
20845;DHT22;10583;49.084;8.646;2023-12-22T06:37:35;8.40;99.90
20845;DHT22;10583;49.084;8.646;2023-12-22T06:40:04;8.40;99.90
20845;DHT22;10583;49.084;8.646;2023-12-22T06:42:31;8.40;99.90
20845;DHT22;10583;49.084;8.646;2023-12-22T06:44:57;8.40;99.90
20845;DHT22;10583;49.084;8.646;2023-12-22T06:47:24;8.30;99.90
20845;DHT22;10583;49.084;8.646;2023-12-22T06:49:52;8.40;99.90
20845;DHT22;10583;49.084;8.646;2023-12-22T06:52:19;8.40;99.90
20845;DHT22;10583;49.084;8.646;2023-12-22T06:54:46;8.30;99.90
20845;DHT22;10583;49.084;8.646;2023-12-22T06:57:14;8.30;99.90
20845;DHT22;10583;49.084;8.646;2023-12-22T06:59:42;8.30;99.90
20845;DHT22;10583;49.084;8.646;2023-12-22T07:02:08;8.30;99.90
20845;DHT22;10583;49.084;8.646;2023-12-22T07:04:35;8.30;99.90
20845;DHT22;10583;49.084;8.646;2023-12-22T07:07:02;8.30;99.90
20845;DHT22;10583;49.084;8.646;2023-12-22T07:09:32;8.30;99.90
20845;DHT22;10583;49.084;8.646;2023-12-22T07:11:58;8.20;99.90
20845;DHT22;10583;49.084;8.646;2023-12-22T07:14:27;8.20;99.90
20845;DHT22;10583;49.084;8.646;2023-12-22T07:16:53;8.20;99.90
20845;DHT22;10583;49.084;8.646;2023-12-22T07:19:20;8.10;99.90
20845;DHT22;10583;49.084;8.646;2023-12-22T07:21:47;8.10;99.90
20845;DHT22;10583;49.084;8.646;2023-12-22T07:24:15;8.10;99.90
20845;DHT22;10583;49.084;8.646;2023-12-22T07:26:41;8.10;99.90
20845;DHT22;10583;49.084;8.646;2023-12-22T07:29:09;8.10;99.90
20845;DHT22;10583;49.084;8.646;2023-12-22T07:31:38;8.10;99.90
20845;DHT22;10583;49.084;8.646;2023-12-22T07:34:04;8.10;99.90
20845;DHT22;10583;49.084;8.646;2023-12-22T07:36:31;8.10;99.90
20845;DHT22;10583;49.084;8.646;2023-12-22T07:38:58;8.10;99.90
20845;DHT22;10583;49.084;8.646;2023-12-22T07:41:26;8.10;99.90
20845;DHT22;10583;49.084;8.646;2023-12-22T07:43:52;8.10;99.90
20845;DHT22;10583;49.084;8.646;2023-12-22T07:46:20;8.10;99.90
20845;DHT22;10583;49.084;8.646;2023-12-22T07:48:49;8.00;99.90
20845;DHT22;10583;49.084;8.646;2023-12-22T07:51:16;7.90;99.90
20845;DHT22;10583;49.084;8.646;2023-12-22T07:53:42;7.90;99.90
20845;DHT22;10583;49.084;8.646;2023-12-22T07:56:09;7.80;99.90
20845;DHT22;10583;49.084;8.646;2023-12-22T07:58:37;7.70;99.90
20845;DHT22;10583;49.084;8.646;2023-12-22T08:01:04;7.70;99.90
20845;DHT22;10583;49.084;8.646;2023-12-22T08:03:31;7.60;99.90
20845;DHT22;10583;49.084;8.646;2023-12-22T08:05:59;7.60;99.90
20845;DHT22;10583;49.084;8.646;2023-12-22T08:08:25;7.60;99.90
20845;DHT22;10583;49.084;8.646;2023-12-22T08:10:52;7.60;99.90
20845;DHT22;10583;49.084;8.646;2023-12-22T08:13:19;7.60;99.90
20845;DHT22;10583;49.084;8.646;2023-12-22T08:15:46;7.60;99.90
20845;DHT22;10583;49.084;8.646;2023-12-22T08:18:13;7.60;99.90
20845;DHT22;10583;49.084;8.646;2023-12-22T08:20:39;7.60;99.90
20845;DHT22;10583;49.084;8.646;2023-12-22T08:23:07;7.60;99.90
20845;DHT22;10583;49.084;8.646;2023-12-22T08:25:33;7.60;99.90
20845;DHT22;10583;49.084;8.646;2023-12-22T08:28:00;7.60;99.90
20845;DHT22;10583;49.084;8.646;2023-12-22T08:30:27;7.60;99.90
20845;DHT22;10583;49.084;8.646;2023-12-22T08:32:53;7.60;99.90
20845;DHT22;10583;49.084;8.646;2023-12-22T08:35:20;7.60;99.90
20845;DHT22;10583;49.084;8.646;2023-12-22T08:37:47;7.60;99.90
20845;DHT22;10583;49.084;8.646;2023-12-22T08:40:15;7.60;99.90
20845;DHT22;10583;49.084;8.646;2023-12-22T08:42:42;7.60;99.90
20845;DHT22;10583;49.084;8.646;2023-12-22T08:45:08;7.60;99.90
20845;DHT22;10583;49.084;8.646;2023-12-22T08:47:35;7.60;99.90
20845;DHT22;10583;49.084;8.646;2023-12-22T08:50:03;7.60;99.90
20845;DHT22;10583;49.084;8.646;2023-12-22T08:52:34;7.60;99.90
20845;DHT22;10583;49.084;8.646;2023-12-22T08:55:04;7.60;99.90
20845;DHT22;10583;49.084;8.646;2023-12-22T08:57:36;7.70;99.90
20845;DHT22;10583;49.084;8.646;2023-12-22T09:00:06;7.70;99.90
20845;DHT22;10583;49.084;8.646;2023-12-22T09:02:36;7.70;99.90
20845;DHT22;10583;49.084;8.646;2023-12-22T09:05:08;7.70;99.90
20845;DHT22;10583;49.084;8.646;2023-12-22T09:07:37;7.70;99.90
20845;DHT22;10583;49.084;8.646;2023-12-22T09:10:07;7.80;99.90
20845;DHT22;10583;49.084;8.646;2023-12-22T09:12:38;7.80;99.90
20845;DHT22;10583;49.084;8.646;2023-12-22T09:15:09;7.90;99.90
20845;DHT22;10583;49.084;8.646;2023-12-22T09:17:39;7.90;99.90
20845;DHT22;10583;49.084;8.646;2023-12-22T09:20:09;8.00;99.90
20845;DHT22;10583;49.084;8.646;2023-12-22T09:22:39;8.00;99.90
20845;DHT22;10583;49.084;8.646;2023-12-22T09:25:08;8.00;99.90
20845;DHT22;10583;49.084;8.646;2023-12-22T09:27:38;8.10;99.90
20845;DHT22;10583;49.084;8.646;2023-12-22T09:30:08;8.10;99.90
20845;DHT22;10583;49.084;8.646;2023-12-22T09:32:38;8.10;99.90
20845;DHT22;10583;49.084;8.646;2023-12-22T09:35:07;8.20;99.90
20845;DHT22;10583;49.084;8.646;2023-12-22T09:37:36;8.20;99.90
20845;DHT22;10583;49.084;8.646;2023-12-22T09:40:07;8.20;99.90
20845;DHT22;10583;49.084;8.646;2023-12-22T09:42:41;8.30;99.90
20845;DHT22;10583;49.084;8.646;2023-12-22T09:45:13;8.30;99.90
20845;DHT22;10583;49.084;8.646;2023-12-22T09:47:45;8.30;99.90
20845;DHT22;10583;49.084;8.646;2023-12-22T09:50:15;8.30;99.90
20845;DHT22;10583;49.084;8.646;2023-12-22T09:52:45;8.40;99.90
20845;DHT22;10583;49.084;8.646;2023-12-22T09:55:14;8.30;99.90
20845;DHT22;10583;49.084;8.646;2023-12-22T09:57:48;8.40;99.90
20845;DHT22;10583;49.084;8.646;2023-12-22T10:00:18;8.40;99.90
20845;DHT22;10583;49.084;8.646;2023-12-22T10:02:45;8.40;99.90
20845;DHT22;10583;49.084;8.646;2023-12-22T10:05:12;8.50;99.90
20845;DHT22;10583;49.084;8.646;2023-12-22T10:07:39;8.50;99.90
20845;DHT22;10583;49.084;8.646;2023-12-22T10:10:07;8.50;99.90
20845;DHT22;10583;49.084;8.646;2023-12-22T10:12:36;8.50;99.90
20845;DHT22;10583;49.084;8.646;2023-12-22T10:15:08;8.50;99.90
20845;DHT22;10583;49.084;8.646;2023-12-22T10:17:35;8.50;99.90
20845;DHT22;10583;49.084;8.646;2023-12-22T10:20:03;8.50;99.90
20845;DHT22;10583;49.084;8.646;2023-12-22T10:22:29;8.60;99.90
20845;DHT22;10583;49.084;8.646;2023-12-22T10:24:56;8.60;99.90
20845;DHT22;10583;49.084;8.646;2023-12-22T10:27:23;8.60;99.90
20845;DHT22;10583;49.084;8.646;2023-12-22T10:29:50;8.60;99.90
20845;DHT22;10583;49.084;8.646;2023-12-22T10:32:18;8.60;99.90
20845;DHT22;10583;49.084;8.646;2023-12-22T10:34:45;8.60;99.90
20845;DHT22;10583;49.084;8.646;2023-12-22T10:37:12;8.70;99.90
20845;DHT22;10583;49.084;8.646;2023-12-22T10:39:40;8.70;99.90
20845;DHT22;10583;49.084;8.646;2023-12-22T10:42:06;8.70;99.90
20845;DHT22;10583;49.084;8.646;2023-12-22T10:44:33;8.70;99.90
20845;DHT22;10583;49.084;8.646;2023-12-22T10:47:00;8.60;99.90
20845;DHT22;10583;49.084;8.646;2023-12-22T10:49:30;8.60;99.90
20845;DHT22;10583;49.084;8.646;2023-12-22T10:51:57;8.60;99.90
20845;DHT22;10583;49.084;8.646;2023-12-22T10:54:24;8.50;99.90
20845;DHT22;10583;49.084;8.646;2023-12-22T10:56:51;8.50;99.90
20845;DHT22;10583;49.084;8.646;2023-12-22T10:59:18;8.50;99.90
20845;DHT22;10583;49.084;8.646;2023-12-22T11:01:51;8.50;99.90
20845;DHT22;10583;49.084;8.646;2023-12-22T11:04:20;8.40;99.90
20845;DHT22;10583;49.084;8.646;2023-12-22T11:06:49;8.40;99.90
20845;DHT22;10583;49.084;8.646;2023-12-22T11:09:20;8.30;99.90
20845;DHT22;10583;49.084;8.646;2023-12-22T11:11:48;8.20;99.90
20845;DHT22;10583;49.084;8.646;2023-12-22T11:14:16;8.20;99.90
20845;DHT22;10583;49.084;8.646;2023-12-22T11:16:43;8.20;99.90
20845;DHT22;10583;49.084;8.646;2023-12-22T11:19:12;8.20;99.90
20845;DHT22;10583;49.084;8.646;2023-12-22T11:21:40;8.20;99.90
20845;DHT22;10583;49.084;8.646;2023-12-22T11:24:08;8.20;99.90
20845;DHT22;10583;49.084;8.646;2023-12-22T11:26:38;8.20;99.90
20845;DHT22;10583;49.084;8.646;2023-12-22T11:29:09;8.20;99.90
20845;DHT22;10583;49.084;8.646;2023-12-22T11:31:37;8.20;99.90
20845;DHT22;10583;49.084;8.646;2023-12-22T11:34:05;8.20;99.90
20845;DHT22;10583;49.084;8.646;2023-12-22T11:36:34;8.30;99.90
20845;DHT22;10583;49.084;8.646;2023-12-22T11:39:02;8.30;99.90
20845;DHT22;10583;49.084;8.646;2023-12-22T11:41:33;8.30;99.90
20845;DHT22;10583;49.084;8.646;2023-12-22T11:44:01;8.30;99.90
20845;DHT22;10583;49.084;8.646;2023-12-22T11:46:30;8.30;99.90
20845;DHT22;10583;49.084;8.646;2023-12-22T11:48:56;8.20;99.90
20845;DHT22;10583;49.084;8.646;2023-12-22T11:51:23;8.30;99.90
20845;DHT22;10583;49.084;8.646;2023-12-22T11:53:51;8.30;99.90
20845;DHT22;10583;49.084;8.646;2023-12-22T11:56:18;8.30;99.90
20845;DHT22;10583;49.084;8.646;2023-12-22T11:58:48;8.30;99.90
20845;DHT22;10583;49.084;8.646;2023-12-22T12:01:19;8.30;99.90
20845;DHT22;10583;49.084;8.646;2023-12-22T12:03:49;8.30;99.90
20845;DHT22;10583;49.084;8.646;2023-12-22T12:06:22;8.30;99.90
20845;DHT22;10583;49.084;8.646;2023-12-22T12:08:48;8.40;99.90
20845;DHT22;10583;49.084;8.646;2023-12-22T12:11:16;8.40;99.90
20845;DHT22;10583;49.084;8.646;2023-12-22T12:13:44;8.40;99.90
20845;DHT22;10583;49.084;8.646;2023-12-22T12:16:13;8.40;99.90
20845;DHT22;10583;49.084;8.646;2023-12-22T12:18:40;8.40;99.90
20845;DHT22;10583;49.084;8.646;2023-12-22T12:21:08;8.40;99.90
20845;DHT22;10583;49.084;8.646;2023-12-22T12:23:36;8.30;99.90
20845;DHT22;10583;49.084;8.646;2023-12-22T12:26:05;8.40;99.90
20845;DHT22;10583;49.084;8.646;2023-12-22T12:28:33;8.40;99.90
20845;DHT22;10583;49.084;8.646;2023-12-22T12:31:03;8.40;99.90
20845;DHT22;10583;49.084;8.646;2023-12-22T12:33:32;8.40;99.90
20845;DHT22;10583;49.084;8.646;2023-12-22T12:36:00;8.40;99.90
20845;DHT22;10583;49.084;8.646;2023-12-22T12:38:37;8.50;99.90
20845;DHT22;10583;49.084;8.646;2023-12-22T12:41:07;8.50;99.90
20845;DHT22;10583;49.084;8.646;2023-12-22T12:43:36;8.50;99.90
20845;DHT22;10583;49.084;8.646;2023-12-22T12:46:04;8.50;99.90
20845;DHT22;10583;49.084;8.646;2023-12-22T12:48:32;8.50;99.90
20845;DHT22;10583;49.084;8.646;2023-12-22T12:51:02;8.50;99.90
20845;DHT22;10583;49.084;8.646;2023-12-22T12:53:30;8.50;99.90
20845;DHT22;10583;49.084;8.646;2023-12-22T12:55:58;8.50;99.90
20845;DHT22;10583;49.084;8.646;2023-12-22T12:58:28;8.60;99.90
20845;DHT22;10583;49.084;8.646;2023-12-22T13:01:04;8.60;99.90
20845;DHT22;10583;49.084;8.646;2023-12-22T13:03:32;8.60;99.90
20845;DHT22;10583;49.084;8.646;2023-12-22T13:06:08;8.60;99.90
20845;DHT22;10583;49.084;8.646;2023-12-22T13:08:35;8.70;99.90
20845;DHT22;10583;49.084;8.646;2023-12-22T13:11:03;8.70;99.90
20845;DHT22;10583;49.084;8.646;2023-12-22T13:13:30;8.70;99.90
20845;DHT22;10583;49.084;8.646;2023-12-22T13:16:07;8.70;99.90
20845;DHT22;10583;49.084;8.646;2023-12-22T13:18:36;8.80;99.90
20845;DHT22;10583;49.084;8.646;2023-12-22T13:21:03;8.80;99.90
20845;DHT22;10583;49.084;8.646;2023-12-22T13:23:30;8.80;99.90
20845;DHT22;10583;49.084;8.646;2023-12-22T13:25:57;8.90;99.90
20845;DHT22;10583;49.084;8.646;2023-12-22T13:28:27;8.80;99.90
20845;DHT22;10583;49.084;8.646;2023-12-22T13:30:55;8.90;99.90
20845;DHT22;10583;49.084;8.646;2023-12-22T13:33:22;9.00;99.90
20845;DHT22;10583;49.084;8.646;2023-12-22T13:35:51;9.00;99.90
20845;DHT22;10583;49.084;8.646;2023-12-22T13:38:18;9.00;99.90
20845;DHT22;10583;49.084;8.646;2023-12-22T13:40:45;9.00;99.90
20845;DHT22;10583;49.084;8.646;2023-12-22T13:43:12;9.00;99.90
20845;DHT22;10583;49.084;8.646;2023-12-22T13:45:39;9.10;99.90
20845;DHT22;10583;49.084;8.646;2023-12-22T13:48:07;9.10;99.90
20845;DHT22;10583;49.084;8.646;2023-12-22T13:50:33;9.20;99.90
20845;DHT22;10583;49.084;8.646;2023-12-22T13:53:09;9.20;99.90
20845;DHT22;10583;49.084;8.646;2023-12-22T13:55:36;9.20;99.90
20845;DHT22;10583;49.084;8.646;2023-12-22T13:58:04;9.20;99.90
20845;DHT22;10583;49.084;8.646;2023-12-22T14:00:31;9.20;99.90
20845;DHT22;10583;49.084;8.646;2023-12-22T14:02:58;9.20;99.90
20845;DHT22;10583;49.084;8.646;2023-12-22T14:05:24;9.20;99.90
20845;DHT22;10583;49.084;8.646;2023-12-22T14:07:52;9.30;99.90
20845;DHT22;10583;49.084;8.646;2023-12-22T14:10:20;9.30;99.90
20845;DHT22;10583;49.084;8.646;2023-12-22T14:12:47;9.30;99.90
20845;DHT22;10583;49.084;8.646;2023-12-22T14:15:14;9.30;99.90
20845;DHT22;10583;49.084;8.646;2023-12-22T14:17:40;9.30;99.90
20845;DHT22;10583;49.084;8.646;2023-12-22T14:20:08;9.30;99.90
20845;DHT22;10583;49.084;8.646;2023-12-22T14:22:36;9.40;99.90
20845;DHT22;10583;49.084;8.646;2023-12-22T14:25:06;9.40;99.90
20845;DHT22;10583;49.084;8.646;2023-12-22T14:27:37;9.40;99.90
20845;DHT22;10583;49.084;8.646;2023-12-22T14:30:04;9.40;99.90
20845;DHT22;10583;49.084;8.646;2023-12-22T14:32:31;9.40;99.90
20845;DHT22;10583;49.084;8.646;2023-12-22T14:34:58;9.40;99.90
20845;DHT22;10583;49.084;8.646;2023-12-22T14:37:26;9.40;99.90
20845;DHT22;10583;49.084;8.646;2023-12-22T14:39:53;9.40;99.90
20845;DHT22;10583;49.084;8.646;2023-12-22T14:42:20;9.50;99.90
20845;DHT22;10583;49.084;8.646;2023-12-22T14:44:48;9.50;99.90
20845;DHT22;10583;49.084;8.646;2023-12-22T14:47:15;9.50;99.90
20845;DHT22;10583;49.084;8.646;2023-12-22T14:49:42;9.50;99.90
20845;DHT22;10583;49.084;8.646;2023-12-22T14:52:08;9.50;99.90
20845;DHT22;10583;49.084;8.646;2023-12-22T14:54:35;9.50;99.90
20845;DHT22;10583;49.084;8.646;2023-12-22T14:57:02;9.50;99.90
20845;DHT22;10583;49.084;8.646;2023-12-22T14:59:29;9.50;99.90
20845;DHT22;10583;49.084;8.646;2023-12-22T15:01:57;9.50;99.90
20845;DHT22;10583;49.084;8.646;2023-12-22T15:04:24;9.50;99.90
20845;DHT22;10583;49.084;8.646;2023-12-22T15:06:51;9.60;99.90
20845;DHT22;10583;49.084;8.646;2023-12-22T15:09:17;9.60;99.90
20845;DHT22;10583;49.084;8.646;2023-12-22T15:11:45;9.60;99.90
20845;DHT22;10583;49.084;8.646;2023-12-22T15:14:12;9.60;99.90
20845;DHT22;10583;49.084;8.646;2023-12-22T15:16:39;9.60;99.90
20845;DHT22;10583;49.084;8.646;2023-12-22T15:19:07;9.60;99.90
20845;DHT22;10583;49.084;8.646;2023-12-22T15:21:34;9.60;99.90
20845;DHT22;10583;49.084;8.646;2023-12-22T15:24:03;9.60;99.90
20845;DHT22;10583;49.084;8.646;2023-12-22T15:26:30;9.70;99.90
20845;DHT22;10583;49.084;8.646;2023-12-22T15:28:59;9.70;99.90
20845;DHT22;10583;49.084;8.646;2023-12-22T15:31:25;9.70;99.90
20845;DHT22;10583;49.084;8.646;2023-12-22T15:33:54;9.60;99.90
20845;DHT22;10583;49.084;8.646;2023-12-22T15:36:22;9.60;99.90
20845;DHT22;10583;49.084;8.646;2023-12-22T15:38:49;9.60;99.90
20845;DHT22;10583;49.084;8.646;2023-12-22T15:41:16;9.60;99.90
20845;DHT22;10583;49.084;8.646;2023-12-22T15:43:43;9.60;99.90
20845;DHT22;10583;49.084;8.646;2023-12-22T15:46:09;9.60;99.90
20845;DHT22;10583;49.084;8.646;2023-12-22T15:48:37;9.60;99.90